Time,TemperatureF,DewpointF,PressureIn,WindDirection,WindDirectionDegrees,WindSpeedMPH,WindSpeedGustMPH,Humidity,HourlyPrecipIn,Conditions,Clouds,dailyrainin,SoftwareType,DateUTC
2013-07-24 00:01:00,66.7,61.1,29.83,WNW,299,0.0,12.0,82,0.00,,,0.46,WUHU216DAVISVP2,2013-07-24 04:01:00,
2013-07-24 00:06:00,66.5,60.2,29.84,West,275,0.0,12.0,80,0.00,,,0.00,WUHU216DAVISVP2,2013-07-24 04:06:00,
2013-07-24 00:11:00,66.4,60.5,29.84,WNW,288,0.0,10.0,81,0.00,,,0.00,WUHU216DAVISVP2,2013-07-24 04:11:00,
2013-07-24 00:16:00,66.3,60.7,29.84,NNE,21,2.0,10.0,82,0.00,,,0.00,WUHU216DAVISVP2,2013-07-24 04:16:00,
2013-07-24 00:21:00,66.1,59.8,29.84,NNE,30,0.0,10.0,80,0.00,,,0.00,WUHU216DAVISVP2,2013-07-24 04:21:00,
2013-07-24 00:26:00,66.1,60.2,29.84,East,96,0.0,10.0,81,0.00,,,0.00,WUHU216DAVISVP2,2013-07-24 04:26:00,
2013-07-24 00:31:00,65.9,60.0,29.84,North,351,0.0,10.0,81,0.00,,,0.00,WUHU216DAVISVP2,2013-07-24 04:31:00,
2013-07-24 00:36:00,65.7,59.8,29.84,NW,305,2.0,12.0,81,0.00,,,0.00,WUHU216DAVISVP2,2013-07-24 04:36:00,
2013-07-24 00:41:00,65.6,60.0,29.84,NE,49,4.0,12.0,82,0.00,,,0.00,WUHU216DAVISVP2,2013-07-24 04:41:00,
2013-07-24 00:46:00,65.4,59.8,29.84,North,360,0.0,18.0,82,0.00,,,0.00,WUHU216DAVISVP2,2013-07-24 04:46:00,
2013-07-24 00:51:00,65.3,59.7,29.85,WNW,282,2.0,18.0,82,0.00,,,0.00,WUHU216DAVISVP2,2013-07-24 04:51:00,
2013-07-24 00:56:00,65.3,59.7,29.85,NNW,329,4.0,10.0,82,0.00,,,0.00,WUHU216DAVISVP2,2013-07-24 04:56:00,
2013-07-24 01:04:00,65.2,59.2,29.85,NNE,24,2.0,12.0,81,0.00,,,0.00,WUHU216DAVISVP2,2013-07-24 05:04:00,
2013-07-24 01:09:00,65.2,59.3,29.85,North,360,2.0,8.0,81,0.00,,,0.00,WUHU216DAVISVP2,2013-07-24 05:09:00,
2013-07-24 01:14:00,65.2,59.3,29.85,NNE,29,2.0,10.0,81,0.00,,,0.00,WUHU216DAVISVP2,2013-07-24 05:14:00,
2013-07-24 01:19:00,65.2,58.9,29.85,WNW,298,8.0,14.0,80,0.00,,,0.00,WUHU216DAVISVP2,2013-07-24 05:19:00,
2013-07-24 01:24:00,65.2,58.9,29.85,NE,53,0.0,14.0,80,0.00,,,0.00,WUHU216DAVISVP2,2013-07-24 05:24:00,
2013-07-24 01:30:00,65.1,59.5,29.85,NNE,31,0.0,12.0,82,0.00,,,0.00,WUHU216DAVISVP2,2013-07-24 05:30:00,
2013-07-24 01:35:00,65.0,59.1,29.85,NNE,27,2.0,14.0,81,0.00,,,0.00,WUHU216DAVISVP2,2013-07-24 05:35:00,
2013-07-24 01:40:00,64.9,59.3,29.85,NNE,15,2.0,14.0,82,0.00,,,0.00,WUHU216DAVISVP2,2013-07-24 05:40:00,
2013-07-24 01:45:00,64.7,59.1,29.85,South,184,2.0,8.0,82,0.00,,,0.00,WUHU216DAVISVP2,2013-07-24 05:45:00,
2013-07-24 01:50:00,64.5,59.3,29.85,West,281,2.0,8.0,83,0.00,,,0.00,WUHU216DAVISVP2,2013-07-24 05:50:00,
2013-07-24 01:55:00,64.3,59.1,29.85,SW,232,0.0,10.0,83,0.00,,,0.00,WUHU216DAVISVP2,2013-07-24 05:55:00,
2013-07-24 02:00:00,64.2,59.0,29.85,NNW,329,0.0,10.0,83,0.00,,,0.00,WUHU216DAVISVP2,2013-07-24 06:00:00,
2013-07-24 02:05:00,64.2,59.3,29.85,NE,53,2.0,12.0,84,0.00,,,0.00,WUHU216DAVISVP2,2013-07-24 06:05:00,
2013-07-24 02:10:00,64.1,58.9,29.85,NNE,29,4.0,12.0,83,0.00,,,0.00,WUHU216DAVISVP2,2013-07-24 06:10:00,
2013-07-24 02:15:00,64.1,57.9,29.85,NE,34,4.0,16.0,80,0.00,,,0.00,WUHU216DAVISVP2,2013-07-24 06:15:00,
2013-07-24 02:20:00,64.1,57.9,29.86,NE,36,0.0,16.0,80,0.00,,,0.00,WUHU216DAVISVP2,2013-07-24 06:20:00,
2013-07-24 02:25:00,64.1,57.9,29.86,NNE,26,0.0,12.0,80,0.00,,,0.00,WUHU216DAVISVP2,2013-07-24 06:25:00,
2013-07-24 02:30:00,64.1,57.9,29.86,NNE,24,0.0,8.0,80,0.00,,,0.00,WUHU216DAVISVP2,2013-07-24 06:30:00,
2013-07-24 02:35:00,64.0,57.8,29.86,East,83,0.0,4.0,80,0.00,,,0.00,WUHU216DAVISVP2,2013-07-24 06:35:00,
2013-07-24 02:40:00,64.0,57.4,29.86,NNW,328,0.0,10.0,79,0.00,,,0.00,WUHU216DAVISVP2,2013-07-24 06:40:00,
2013-07-24 02:45:00,64.0,57.8,29.86,North,11,2.0,10.0,80,0.00,,,0.00,WUHU216DAVISVP2,2013-07-24 06:45:00,
2013-07-24 02:50:00,63.9,57.0,29.86,North,355,2.0,10.0,78,0.00,,,0.00,WUHU216DAVISVP2,2013-07-24 06:50:00,
2013-07-24 02:56:00,63.9,57.3,29.86,NNE,12,0.0,10.0,79,0.00,,,0.00,WUHU216DAVISVP2,2013-07-24 06:56:00,
2013-07-24 03:01:00,63.8,56.5,29.86,NNE,13,0.0,10.0,77,0.00,,,0.00,WUHU216DAVISVP2,2013-07-24 07:01:00,
2013-07-24 03:06:00,63.8,56.2,29.86,NE,42,10.0,12.0,76,0.00,,,0.00,WUHU216DAVISVP2,2013-07-24 07:06:00,
2013-07-24 03:11:00,63.7,56.1,29.86,NE,43,0.0,12.0,76,0.00,,,0.00,WUHU216DAVISVP2,2013-07-24 07:11:00,
2013-07-24 03:16:00,63.7,57.1,29.86,NE,44,0.0,6.0,79,0.00,,,0.00,WUHU216DAVISVP2,2013-07-24 07:16:00,
2013-07-24 03:21:00,63.6,56.0,29.86,North,355,2.0,6.0,76,0.00,,,0.00,WUHU216DAVISVP2,2013-07-24 07:21:00,
2013-07-24 03:26:00,63.5,55.9,29.86,NNW,335,0.0,6.0,76,0.00,,,0.00,WUHU216DAVISVP2,2013-07-24 07:26:00,
2013-07-24 03:31:00,63.4,56.2,29.86,ESE,121,0.0,4.0,77,0.00,,,0.00,WUHU216DAVISVP2,2013-07-24 07:31:00,
2013-07-24 03:36:00,63.2,55.6,29.86,WNW,288,6.0,6.0,76,0.00,,,0.00,WUHU216DAVISVP2,2013-07-24 07:36:00,
2013-07-24 03:41:00,63.1,55.9,29.86,North,5,2.0,6.0,77,0.00,,,0.00,WUHU216DAVISVP2,2013-07-24 07:41:00,
2013-07-24 03:47:00,63.0,55.8,29.86,ESE,111,0.0,8.0,77,0.00,,,0.00,WUHU216DAVISVP2,2013-07-24 07:47:00,
2013-07-24 03:52:00,63.0,56.5,29.86,SSE,148,0.0,8.0,79,0.00,,,0.00,WUHU216DAVISVP2,2013-07-24 07:52:00,
2013-07-24 03:57:00,62.9,55.7,29.86,NNE,29,0.0,12.0,77,0.00,,,0.00,WUHU216DAVISVP2,2013-07-24 07:57:00,
2013-07-24 04:02:00,63.0,55.8,29.86,North,5,0.0,14.0,77,0.00,,,0.00,WUHU216DAVISVP2,2013-07-24 08:02:00,
2013-07-24 04:07:00,63.0,55.4,29.86,SE,137,4.0,14.0,76,0.00,,,0.00,WUHU216DAVISVP2,2013-07-24 08:07:00,
2013-07-24 04:12:00,63.0,56.1,29.86,NW,325,0.0,6.0,78,0.00,,,0.00,WUHU216DAVISVP2,2013-07-24 08:12:00,
2013-07-24 04:17:00,62.9,55.7,29.85,NNE,13,0.0,6.0,77,0.00,,,0.00,WUHU216DAVISVP2,2013-07-24 08:17:00,
2013-07-24 04:22:00,62.8,55.9,29.85,North,11,4.0,8.0,78,0.00,,,0.00,WUHU216DAVISVP2,2013-07-24 08:22:00,
2013-07-24 04:27:00,62.6,55.7,29.85,WSW,242,0.0,8.0,78,0.00,,,0.00,WUHU216DAVISVP2,2013-07-24 08:27:00,
2013-07-24 04:32:00,62.5,55.3,29.85,NE,36,0.0,10.0,77,0.00,,,0.00,WUHU216DAVISVP2,2013-07-24 08:32:00,
2013-07-24 04:37:00,62.4,55.2,29.85,SSE,161,2.0,10.0,77,0.00,,,0.00,WUHU216DAVISVP2,2013-07-24 08:37:00,
2013-07-24 04:42:00,62.3,55.1,29.86,NW,323,0.0,10.0,77,0.00,,,0.00,WUHU216DAVISVP2,2013-07-24 08:42:00,
2013-07-24 04:47:00,62.2,55.0,29.86,NNW,345,0.0,10.0,77,0.00,,,0.00,WUHU216DAVISVP2,2013-07-24 08:47:00,
2013-07-24 04:52:00,62.1,54.9,29.86,NE,51,0.0,8.0,77,0.00,,,0.00,WUHU216DAVISVP2,2013-07-24 08:52:00,
2013-07-24 04:57:00,62.1,55.2,29.86,North,11,0.0,6.0,78,0.00,,,0.00,WUHU216DAVISVP2,2013-07-24 08:57:00,
2013-07-24 05:02:00,62.0,55.8,29.86,NNE,32,0.0,4.0,80,0.00,,,0.00,WUHU216DAVISVP2,2013-07-24 09:02:00,
2013-07-24 05:07:00,61.8,55.3,29.86,ENE,76,0.0,8.0,79,0.00,,,0.00,WUHU216DAVISVP2,2013-07-24 09:07:00,
2013-07-24 05:12:00,61.7,55.2,29.86,NW,321,2.0,8.0,79,0.00,,,0.00,WUHU216DAVISVP2,2013-07-24 09:12:00,
2013-07-24 05:17:00,61.8,54.6,29.86,ENE,65,10.0,16.0,77,0.00,,,0.00,WUHU216DAVISVP2,2013-07-24 09:17:00,
2013-07-24 05:22:00,61.9,54.4,29.86,North,355,6.0,16.0,76,0.00,,,0.00,WUHU216DAVISVP2,2013-07-24 09:22:00,
2013-07-24 05:27:00,62.0,54.8,29.86,West,270,0.0,14.0,77,0.00,,,0.00,WUHU216DAVISVP2,2013-07-24 09:27:00,
2013-07-24 05:32:00,62.0,54.1,29.87,NNE,17,0.0,8.0,75,0.00,,,0.00,WUHU216DAVISVP2,2013-07-24 09:32:00,
2013-07-24 05:38:00,62.0,54.4,29.87,NNE,30,0.0,8.0,76,0.00,,,0.00,WUHU216DAVISVP2,2013-07-24 09:38:00,
2013-07-24 05:43:00,61.9,54.4,29.87,NE,40,0.0,6.0,76,0.00,,,0.00,WUHU216DAVISVP2,2013-07-24 09:43:00,
2013-07-24 05:48:00,61.8,53.9,29.87,NNE,22,0.0,6.0,75,0.00,,,0.00,WUHU216DAVISVP2,2013-07-24 09:48:00,
2013-07-24 05:53:00,61.8,54.3,29.88,North,5,0.0,6.0,76,0.00,,,0.00,WUHU216DAVISVP2,2013-07-24 09:53:00,
2013-07-24 05:58:00,61.7,54.5,29.88,NNE,26,8.0,8.0,77,0.00,,,0.00,WUHU216DAVISVP2,2013-07-24 09:58:00,
2013-07-24 06:03:00,61.7,54.5,29.88,WNW,292,0.0,16.0,77,0.00,,,0.00,WUHU216DAVISVP2,2013-07-24 10:03:00,
2013-07-24 06:08:00,61.7,54.9,29.89,SW,231,0.0,16.0,78,0.00,,,0.00,WUHU216DAVISVP2,2013-07-24 10:08:00,
2013-07-24 06:13:00,61.6,54.8,29.89,NW,313,0.0,8.0,78,0.00,,,0.00,WUHU216DAVISVP2,2013-07-24 10:13:00,
2013-07-24 06:18:00,61.5,55.0,29.89,NE,45,0.0,6.0,79,0.00,,,0.00,WUHU216DAVISVP2,2013-07-24 10:18:00,
2013-07-24 06:23:00,61.5,55.3,29.89,NNE,32,0.0,6.0,80,0.00,,,0.00,WUHU216DAVISVP2,2013-07-24 10:23:00,
2013-07-24 06:28:00,61.4,54.9,29.90,NW,325,0.0,6.0,79,0.00,,,0.00,WUHU216DAVISVP2,2013-07-24 10:28:00,
2013-07-24 06:33:00,61.4,54.9,29.90,NW,325,0.0,4.0,79,0.00,,,0.00,WUHU216DAVISVP2,2013-07-24 10:33:00,
2013-07-24 06:38:00,61.5,55.3,29.90,North,360,2.0,2.0,80,0.00,,,0.00,WUHU216DAVISVP2,2013-07-24 10:38:00,
2013-07-24 06:43:00,61.6,55.1,29.90,South,169,0.0,4.0,79,0.00,,,0.00,WUHU216DAVISVP2,2013-07-24 10:43:00,
2013-07-24 06:48:00,61.7,54.9,29.90,South,180,0.0,10.0,78,0.00,,,0.00,WUHU216DAVISVP2,2013-07-24 10:48:00,
2013-07-24 06:53:00,61.8,55.3,29.90,NNE,13,4.0,10.0,79,0.00,,,0.00,WUHU216DAVISVP2,2013-07-24 10:53:00,
2013-07-24 06:58:00,61.8,54.9,29.90,North,349,0.0,8.0,78,0.00,,,0.00,WUHU216DAVISVP2,2013-07-24 10:58:00,
2013-07-24 07:03:00,61.8,55.3,29.91,SW,221,4.0,8.0,79,0.00,,,0.00,WUHU216DAVISVP2,2013-07-24 11:03:00,
2013-07-24 07:08:00,61.8,54.9,29.91,NNW,329,2.0,10.0,78,0.00,,,0.00,WUHU216DAVISVP2,2013-07-24 11:08:00,
2013-07-24 07:13:00,61.9,55.0,29.91,East,89,0.0,10.0,78,0.00,,,0.00,WUHU216DAVISVP2,2013-07-24 11:13:00,
2013-07-24 07:18:00,61.8,55.3,29.91,NNE,17,0.0,6.0,79,0.00,,,0.00,WUHU216DAVISVP2,2013-07-24 11:18:00,
2013-07-24 07:23:00,61.8,55.3,29.92,East,79,0.0,8.0,79,0.00,,,0.00,WUHU216DAVISVP2,2013-07-24 11:23:00,
2013-07-24 07:28:00,61.8,54.9,29.92,NNW,348,2.0,8.0,78,0.00,,,0.00,WUHU216DAVISVP2,2013-07-24 11:28:00,
2013-07-24 07:34:00,61.7,54.9,29.93,NNE,25,0.0,6.0,78,0.00,,,0.00,WUHU216DAVISVP2,2013-07-24 11:34:00,
2013-07-24 07:39:00,61.8,54.9,29.93,NW,323,0.0,10.0,78,0.00,,,0.00,WUHU216DAVISVP2,2013-07-24 11:39:00,
2013-07-24 07:44:00,61.8,55.3,29.93,NNE,22,4.0,10.0,79,0.00,,,0.00,WUHU216DAVISVP2,2013-07-24 11:44:00,
2013-07-24 07:49:00,61.7,54.5,29.93,NE,53,0.0,6.0,77,0.00,,,0.00,WUHU216DAVISVP2,2013-07-24 11:49:00,
2013-07-24 07:54:00,61.8,54.3,29.93,NNE,22,4.0,12.0,76,0.00,,,0.00,WUHU216DAVISVP2,2013-07-24 11:54:00,
2013-07-24 07:59:00,62.0,54.4,29.93,WSW,244,0.0,12.0,76,0.00,,,0.00,WUHU216DAVISVP2,2013-07-24 11:59:00,
2013-07-24 08:04:00,62.2,54.3,29.93,SE,127,0.0,8.0,75,0.00,,,0.00,WUHU216DAVISVP2,2013-07-24 12:04:00,
2013-07-24 08:09:00,62.4,54.5,29.93,NNW,333,0.0,8.0,75,0.00,,,0.00,WUHU216DAVISVP2,2013-07-24 12:09:00,
2013-07-24 08:14:00,62.7,54.8,29.94,NNE,29,2.0,10.0,75,0.00,,,0.00,WUHU216DAVISVP2,2013-07-24 12:14:00,
2013-07-24 08:19:00,63.2,55.6,29.94,NW,309,2.0,10.0,76,0.00,,,0.00,WUHU216DAVISVP2,2013-07-24 12:19:00,
2013-07-24 08:24:00,63.1,54.8,29.94,NE,43,4.0,10.0,74,0.00,,,0.00,WUHU216DAVISVP2,2013-07-24 12:24:00,
2013-07-24 08:29:00,62.5,54.2,29.95,NNW,328,2.0,16.0,74,0.00,,,0.00,WUHU216DAVISVP2,2013-07-24 12:29:00,
2013-07-24 08:34:00,62.1,54.5,29.95,NE,42,2.0,16.0,76,0.00,,,0.00,WUHU216DAVISVP2,2013-07-24 12:34:00,
2013-07-24 08:39:00,61.8,54.3,29.95,WNW,286,0.0,10.0,76,0.00,,,0.00,WUHU216DAVISVP2,2013-07-24 12:39:00,
2013-07-24 08:44:00,61.7,54.2,29.95,NNE,29,2.0,10.0,76,0.00,,,0.00,WUHU216DAVISVP2,2013-07-24 12:44:00,
2013-07-24 08:49:00,61.7,54.2,29.96,NW,326,2.0,10.0,76,0.00,,,0.00,WUHU216DAVISVP2,2013-07-24 12:49:00,
2013-07-24 08:54:00,61.8,54.6,29.96,North,355,0.0,6.0,77,0.00,,,0.00,WUHU216DAVISVP2,2013-07-24 12:54:00,
2013-07-24 08:59:00,61.9,54.0,29.96,South,178,0.0,8.0,75,0.00,,,0.00,WUHU216DAVISVP2,2013-07-24 12:59:00,
2013-07-24 09:04:00,61.9,54.4,29.97,ENE,78,0.0,8.0,76,0.00,,,0.00,WUHU216DAVISVP2,2013-07-24 13:04:00,
2013-07-24 09:09:00,61.8,54.3,29.96,East,86,2.0,12.0,76,0.00,,,0.00,WUHU216DAVISVP2,2013-07-24 13:09:00,
2013-07-24 09:14:00,61.8,53.9,29.96,SE,137,2.0,12.0,75,0.00,,,0.00,WUHU216DAVISVP2,2013-07-24 13:14:00,
2013-07-24 09:20:00,61.9,54.0,29.96,West,277,4.0,10.0,75,0.00,,,0.00,WUHU216DAVISVP2,2013-07-24 13:20:00,
2013-07-24 09:25:00,62.1,53.5,29.96,NNE,33,4.0,14.0,73,0.00,,,0.00,WUHU216DAVISVP2,2013-07-24 13:25:00,
2013-07-24 09:30:00,62.3,54.0,29.96,ENE,63,2.0,14.0,74,0.00,,,0.00,WUHU216DAVISVP2,2013-07-24 13:30:00,
2013-07-24 09:35:00,62.2,53.9,29.97,NE,40,2.0,20.0,74,0.00,,,0.00,WUHU216DAVISVP2,2013-07-24 13:35:00,
2013-07-24 09:40:00,62.0,54.1,29.97,West,263,0.0,20.0,75,0.00,,,0.00,WUHU216DAVISVP2,2013-07-24 13:40:00,
2013-07-24 09:45:00,61.9,54.0,29.97,NW,309,0.0,12.0,75,0.00,,,0.00,WUHU216DAVISVP2,2013-07-24 13:45:00,
2013-07-24 09:50:00,62.0,54.1,29.98,NE,45,4.0,12.0,75,0.00,,,0.00,WUHU216DAVISVP2,2013-07-24 13:50:00,
2013-07-24 09:55:00,61.8,53.5,29.98,ENE,68,2.0,10.0,74,0.00,,,0.00,WUHU216DAVISVP2,2013-07-24 13:55:00,
2013-07-24 10:00:00,61.7,53.8,29.98,WNW,290,6.0,10.0,75,0.00,,,0.00,WUHU216DAVISVP2,2013-07-24 14:00:00,
2013-07-24 10:05:00,61.6,53.3,29.98,NNE,30,2.0,10.0,74,0.00,,,0.00,WUHU216DAVISVP2,2013-07-24 14:05:00,
2013-07-24 10:10:00,61.6,54.1,29.98,SE,130,4.0,10.0,76,0.00,,,0.00,WUHU216DAVISVP2,2013-07-24 14:10:00,
2013-07-24 10:15:00,61.7,54.2,29.98,WNW,290,8.0,10.0,76,0.00,,,0.00,WUHU216DAVISVP2,2013-07-24 14:15:00,
2013-07-24 10:20:00,61.8,53.9,29.98,NE,34,0.0,10.0,75,0.00,,,0.00,WUHU216DAVISVP2,2013-07-24 14:20:00,
2013-07-24 10:25:00,62.2,54.3,29.98,WNW,284,8.0,10.0,75,0.00,,,0.00,WUHU216DAVISVP2,2013-07-24 14:25:00,
2013-07-24 10:30:00,62.1,53.1,29.99,North,9,2.0,14.0,72,0.00,,,0.00,WUHU216DAVISVP2,2013-07-24 14:30:00,
2013-07-24 10:35:00,62.1,53.5,29.99,NNE,28,4.0,14.0,73,0.00,,,0.00,WUHU216DAVISVP2,2013-07-24 14:35:00,
2013-07-24 10:40:00,62.8,53.8,29.99,NW,311,2.0,8.0,72,0.00,,,0.00,WUHU216DAVISVP2,2013-07-24 14:40:00,
2013-07-24 10:45:00,62.9,53.1,29.99,ENE,78,0.0,8.0,70,0.00,,,0.00,WUHU216DAVISVP2,2013-07-24 14:45:00,
2013-07-24 10:50:00,62.9,54.6,30.00,North,9,4.0,8.0,74,0.00,,,0.00,WUHU216DAVISVP2,2013-07-24 14:50:00,
2013-07-24 10:55:00,63.0,54.3,30.00,ENE,62,2.0,10.0,73,0.00,,,0.00,WUHU216DAVISVP2,2013-07-24 14:55:00,
2013-07-24 11:00:00,62.9,53.5,30.00,NW,326,4.0,10.0,71,0.00,,,0.00,WUHU216DAVISVP2,2013-07-24 15:00:00,
2013-07-24 11:05:00,62.7,54.0,29.99,SSW,193,0.0,10.0,73,0.00,,,0.00,WUHU216DAVISVP2,2013-07-24 15:05:00,
2013-07-24 11:10:00,63.7,53.9,29.99,SE,133,0.0,10.0,70,0.00,,,0.00,WUHU216DAVISVP2,2013-07-24 15:10:00,
2013-07-24 11:15:00,64.7,54.1,29.99,NNE,17,0.0,10.0,68,0.00,,,0.00,WUHU216DAVISVP2,2013-07-24 15:15:00,
2013-07-24 11:20:00,64.7,54.5,30.00,East,96,2.0,14.0,69,0.00,,,0.00,WUHU216DAVISVP2,2013-07-24 15:20:00,
2013-07-24 11:25:00,64.7,53.7,30.00,ENE,67,0.0,14.0,67,0.00,,,0.00,WUHU216DAVISVP2,2013-07-24 15:25:00,
2013-07-24 11:30:00,64.4,54.6,30.00,East,98,4.0,10.0,70,0.00,,,0.00,WUHU216DAVISVP2,2013-07-24 15:30:00,
2013-07-24 11:36:00,64.3,54.1,30.00,ESE,114,2.0,20.0,69,0.00,,,0.00,WUHU216DAVISVP2,2013-07-24 15:36:00,
2013-07-24 11:41:00,64.1,54.3,30.00,ENE,70,6.0,20.0,70,0.00,,,0.00,WUHU216DAVISVP2,2013-07-24 15:41:00,
2013-07-24 11:46:00,63.7,54.3,30.00,NE,46,2.0,18.0,71,0.00,,,0.00,WUHU216DAVISVP2,2013-07-24 15:46:00,
2013-07-24 11:51:00,63.8,55.1,30.00,ESE,105,0.0,14.0,73,0.00,,,0.00,WUHU216DAVISVP2,2013-07-24 15:51:00,
2013-07-24 11:56:00,64.4,54.9,30.00,SE,126,4.0,10.0,71,0.00,,,0.00,WUHU216DAVISVP2,2013-07-24 15:56:00,
2013-07-24 12:01:00,64.6,55.5,30.00,NW,317,4.0,10.0,72,0.00,,,0.00,WUHU216DAVISVP2,2013-07-24 16:01:00,
2013-07-24 12:06:00,64.7,55.2,30.00,WNW,298,6.0,12.0,71,0.00,,,0.00,WUHU216DAVISVP2,2013-07-24 16:06:00,
2013-07-24 12:11:00,64.5,54.3,30.00,WNW,299,4.0,12.0,69,0.00,,,0.00,WUHU216DAVISVP2,2013-07-24 16:11:00,
2013-07-24 12:16:00,64.2,54.4,30.00,WNW,302,2.0,8.0,70,0.00,,,0.00,WUHU216DAVISVP2,2013-07-24 16:16:00,
2013-07-24 12:21:00,64.4,54.6,30.01,NNE,30,2.0,8.0,70,0.00,,,0.00,WUHU216DAVISVP2,2013-07-24 16:21:00,
2013-07-24 12:26:00,64.4,54.6,30.01,NE,51,8.0,10.0,70,0.00,,,0.00,WUHU216DAVISVP2,2013-07-24 16:26:00,
2013-07-24 12:31:00,64.8,54.2,30.01,NNE,20,2.0,10.0,68,0.00,,,0.00,WUHU216DAVISVP2,2013-07-24 16:31:00,
2013-07-24 12:36:00,65.4,55.5,30.01,WNW,301,4.0,14.0,70,0.00,,,0.00,WUHU216DAVISVP2,2013-07-24 16:36:00,
2013-07-24 12:41:00,65.4,53.9,30.01,NE,55,4.0,14.0,66,0.00,,,0.00,WUHU216DAVISVP2,2013-07-24 16:41:00,
2013-07-24 12:46:00,65.6,54.5,30.01,ESE,107,2.0,14.0,67,0.00,,,0.00,WUHU216DAVISVP2,2013-07-24 16:46:00,
2013-07-24 12:52:00,66.1,54.2,30.01,NNE,14,6.0,16.0,65,0.00,,,0.00,WUHU216DAVISVP2,2013-07-24 16:52:00,
2013-07-24 12:57:00,65.7,54.6,30.01,NW,325,4.0,16.0,67,0.00,,,0.00,WUHU216DAVISVP2,2013-07-24 16:57:00,
2013-07-24 13:02:00,65.8,53.5,30.01,ENE,68,4.0,12.0,64,0.00,,,0.00,WUHU216DAVISVP2,2013-07-24 17:02:00,
2013-07-24 13:07:00,65.9,53.5,30.01,NNE,29,6.0,12.0,64,0.00,,,0.00,WUHU216DAVISVP2,2013-07-24 17:07:00,
2013-07-24 13:12:00,66.0,54.9,30.01,NE,45,4.0,12.0,67,0.00,,,0.00,WUHU216DAVISVP2,2013-07-24 17:12:00,
2013-07-24 13:17:00,66.1,54.6,30.01,NNE,26,2.0,10.0,66,0.00,,,0.00,WUHU216DAVISVP2,2013-07-24 17:17:00,
2013-07-24 13:22:00,66.3,53.9,30.02,NNE,30,2.0,12.0,64,0.00,,,0.00,WUHU216DAVISVP2,2013-07-24 17:22:00,
2013-07-24 13:27:00,66.5,55.0,30.01,NNE,33,4.0,12.0,66,0.00,,,0.00,WUHU216DAVISVP2,2013-07-24 17:27:00,
2013-07-24 13:32:00,67.1,54.3,30.01,NNE,21,0.0,12.0,63,0.00,,,0.00,WUHU216DAVISVP2,2013-07-24 17:32:00,
2013-07-24 13:37:00,67.4,55.8,30.01,NE,42,4.0,20.0,66,0.00,,,0.00,WUHU216DAVISVP2,2013-07-24 17:37:00,
2013-07-24 13:42:00,67.2,53.5,30.02,ENE,57,2.0,20.0,61,0.00,,,0.00,WUHU216DAVISVP2,2013-07-24 17:42:00,
2013-07-24 13:47:00,67.0,53.7,30.02,NNE,27,6.0,10.0,62,0.00,,,0.00,WUHU216DAVISVP2,2013-07-24 17:47:00,
2013-07-24 13:52:00,67.2,55.2,30.01,ESE,121,4.0,10.0,65,0.00,,,0.00,WUHU216DAVISVP2,2013-07-24 17:52:00,
2013-07-24 13:57:00,67.1,53.8,30.01,NE,48,0.0,14.0,62,0.00,,,0.00,WUHU216DAVISVP2,2013-07-24 17:57:00,
2013-07-24 14:02:00,67.1,53.8,30.01,NNE,32,6.0,14.0,62,0.00,,,0.00,WUHU216DAVISVP2,2013-07-24 18:02:00,
2013-07-24 14:07:00,66.9,54.9,30.01,NNE,30,8.0,16.0,65,0.00,,,0.00,WUHU216DAVISVP2,2013-07-24 18:07:00,
2013-07-24 14:12:00,66.7,54.3,30.01,NW,305,2.0,16.0,64,0.00,,,0.00,WUHU216DAVISVP2,2013-07-24 18:12:00,
2013-07-24 14:17:00,66.7,54.7,30.01,WSW,252,2.0,22.0,65,0.00,,,0.00,WUHU216DAVISVP2,2013-07-24 18:17:00,
2013-07-24 14:22:00,66.9,54.9,30.01,NNE,15,6.0,22.0,65,0.00,,,0.00,WUHU216DAVISVP2,2013-07-24 18:22:00,
2013-07-24 14:27:00,67.8,55.8,30.01,WNW,290,6.0,16.0,65,0.00,,,0.00,WUHU216DAVISVP2,2013-07-24 18:27:00,
2013-07-24 14:32:00,68.0,53.8,30.01,East,82,6.0,12.0,60,0.00,,,0.00,WUHU216DAVISVP2,2013-07-24 18:32:00,
2013-07-24 14:37:00,67.7,55.3,30.01,WNW,291,2.0,12.0,64,0.00,,,0.00,WUHU216DAVISVP2,2013-07-24 18:37:00,
2013-07-24 14:42:00,67.5,55.1,30.01,SW,229,4.0,10.0,64,0.00,,,0.00,WUHU216DAVISVP2,2013-07-24 18:42:00,
2013-07-24 14:47:00,68.0,56.4,30.01,WNW,298,4.0,12.0,66,0.00,,,0.00,WUHU216DAVISVP2,2013-07-24 18:47:00,
2013-07-24 14:53:00,68.0,54.7,30.01,ESE,114,4.0,14.0,62,0.00,,,0.00,WUHU216DAVISVP2,2013-07-24 18:53:00,
2013-07-24 14:58:00,67.6,54.7,30.01,East,98,0.0,16.0,63,0.00,,,0.00,WUHU216DAVISVP2,2013-07-24 18:58:00,
2013-07-24 15:03:00,67.8,55.8,30.02,SW,221,2.0,16.0,65,0.00,,,0.00,WUHU216DAVISVP2,2013-07-24 19:03:00,
2013-07-24 15:08:00,67.8,54.0,30.02,NNW,341,6.0,10.0,61,0.00,,,0.00,WUHU216DAVISVP2,2013-07-24 19:08:00,
2013-07-24 15:13:00,67.3,54.0,30.02,WNW,301,2.0,10.0,62,0.00,,,0.00,WUHU216DAVISVP2,2013-07-24 19:13:00,
2013-07-24 15:18:00,67.6,54.7,30.02,WSW,239,0.0,8.0,63,0.00,,,0.00,WUHU216DAVISVP2,2013-07-24 19:18:00,
2013-07-24 15:23:00,67.9,54.1,30.01,ENE,65,0.0,18.0,61,0.00,,,0.00,WUHU216DAVISVP2,2013-07-24 19:23:00,
2013-07-24 15:28:00,68.2,55.3,30.01,SE,128,2.0,18.0,63,0.00,,,0.00,WUHU216DAVISVP2,2013-07-24 19:28:00,
2013-07-24 15:33:00,68.3,54.5,30.01,North,11,4.0,16.0,61,0.00,,,0.00,WUHU216DAVISVP2,2013-07-24 19:33:00,
2013-07-24 15:38:00,67.6,54.3,30.01,SSW,198,4.0,16.0,62,0.00,,,0.00,WUHU216DAVISVP2,2013-07-24 19:38:00,
2013-07-24 15:43:00,67.8,54.9,30.01,NW,317,6.0,12.0,63,0.00,,,0.00,WUHU216DAVISVP2,2013-07-24 19:43:00,
2013-07-24 15:48:00,67.7,53.9,30.01,NE,51,2.0,10.0,61,0.00,,,0.00,WUHU216DAVISVP2,2013-07-24 19:48:00,
2013-07-24 15:53:00,67.9,54.1,30.01,ENE,69,8.0,14.0,61,0.00,,,0.00,WUHU216DAVISVP2,2013-07-24 19:53:00,
2013-07-24 15:58:00,67.4,54.5,30.01,ESE,107,0.0,16.0,63,0.00,,,0.00,WUHU216DAVISVP2,2013-07-24 19:58:00,
2013-07-24 16:03:00,67.0,54.2,30.01,North,5,0.0,16.0,63,0.00,,,0.00,WUHU216DAVISVP2,2013-07-24 20:03:00,
2013-07-24 16:08:00,66.8,54.4,30.01,NNW,338,2.0,8.0,64,0.00,,,0.00,WUHU216DAVISVP2,2013-07-24 20:08:00,
2013-07-24 16:13:00,67.1,54.7,30.01,ESE,113,0.0,8.0,64,0.00,,,0.00,WUHU216DAVISVP2,2013-07-24 20:13:00,
2013-07-24 16:18:00,67.2,54.8,30.02,ESE,117,4.0,8.0,64,0.00,,,0.00,WUHU216DAVISVP2,2013-07-24 20:18:00,
2013-07-24 16:23:00,67.6,54.7,30.02,North,5,0.0,16.0,63,0.00,,,0.00,WUHU216DAVISVP2,2013-07-24 20:23:00,
2013-07-24 16:28:00,67.5,54.6,30.02,NW,304,0.0,16.0,63,0.00,,,0.00,WUHU216DAVISVP2,2013-07-24 20:28:00,
2013-07-24 16:33:00,67.4,54.5,30.02,ENE,63,6.0,10.0,63,0.00,,,0.00,WUHU216DAVISVP2,2013-07-24 20:33:00,
2013-07-24 16:38:00,67.5,54.6,30.02,NNW,327,0.0,14.0,63,0.00,,,0.00,WUHU216DAVISVP2,2013-07-24 20:38:00,
2013-07-24 16:43:00,67.6,55.6,30.02,North,355,2.0,14.0,65,0.00,,,0.00,WUHU216DAVISVP2,2013-07-24 20:43:00,
2013-07-24 16:48:00,67.6,54.3,30.02,ENE,65,4.0,10.0,62,0.00,,,0.00,WUHU216DAVISVP2,2013-07-24 20:48:00,
2013-07-24 16:53:00,67.4,54.1,30.02,North,355,0.0,12.0,62,0.00,,,0.00,WUHU216DAVISVP2,2013-07-24 20:53:00,
2013-07-24 16:58:00,67.3,54.4,30.02,North,11,2.0,12.0,63,0.00,,,0.00,WUHU216DAVISVP2,2013-07-24 20:58:00,
2013-07-24 17:03:00,67.3,54.9,30.02,SSE,148,2.0,10.0,64,0.00,,,0.00,WUHU216DAVISVP2,2013-07-24 21:03:00,
2013-07-24 17:09:00,67.5,54.6,30.02,NNE,22,2.0,8.0,63,0.00,,,0.00,WUHU216DAVISVP2,2013-07-24 21:09:00,
2013-07-24 17:14:00,66.5,53.7,30.02,ENE,74,0.0,8.0,63,0.00,,,0.00,WUHU216DAVISVP2,2013-07-24 21:14:00,
2013-07-24 17:19:00,66.3,53.9,30.02,SSE,166,2.0,8.0,64,0.00,,,0.00,WUHU216DAVISVP2,2013-07-24 21:19:00,
2013-07-24 17:24:00,66.5,54.1,30.02,North,355,4.0,8.0,64,0.00,,,0.00,WUHU216DAVISVP2,2013-07-24 21:24:00,
2013-07-24 17:29:00,66.1,54.6,30.02,NNE,28,0.0,8.0,66,0.00,,,0.00,WUHU216DAVISVP2,2013-07-24 21:29:00,
2013-07-24 17:34:00,66.0,54.1,30.02,East,90,2.0,4.0,65,0.00,,,0.00,WUHU216DAVISVP2,2013-07-24 21:34:00,
2013-07-24 17:39:00,66.3,53.9,30.02,SSE,163,6.0,6.0,64,0.00,,,0.00,WUHU216DAVISVP2,2013-07-24 21:39:00,
2013-07-24 17:44:00,66.5,54.5,30.03,NNE,24,2.0,6.0,65,0.00,,,0.00,WUHU216DAVISVP2,2013-07-24 21:44:00,
2013-07-24 17:50:00,66.5,54.5,30.02,North,355,0.0,6.0,65,0.00,,,0.00,WUHU216DAVISVP2,2013-07-24 21:50:00,
2013-07-24 17:55:00,66.6,53.8,30.02,NNE,24,4.0,8.0,63,0.00,,,0.00,WUHU216DAVISVP2,2013-07-24 21:55:00,
2013-07-24 18:00:00,66.5,53.7,30.02,NE,56,0.0,10.0,63,0.00,,,0.00,WUHU216DAVISVP2,2013-07-24 22:00:00,
2013-07-24 18:05:00,66.3,52.6,30.02,NNE,32,2.0,10.0,61,0.00,,,0.00,WUHU216DAVISVP2,2013-07-24 22:05:00,
2013-07-24 18:10:00,65.9,53.1,30.02,North,5,0.0,8.0,63,0.00,,,0.00,WUHU216DAVISVP2,2013-07-24 22:10:00,
2013-07-24 18:15:00,65.8,52.6,30.02,ESE,115,0.0,8.0,62,0.00,,,0.00,WUHU216DAVISVP2,2013-07-24 22:15:00,
2013-07-24 18:20:00,65.7,53.8,30.02,ENE,58,2.0,8.0,65,0.00,,,0.00,WUHU216DAVISVP2,2013-07-24 22:20:00,
2013-07-24 18:25:00,65.7,53.8,30.02,ESE,105,0.0,4.0,65,0.00,,,0.00,WUHU216DAVISVP2,2013-07-24 22:25:00,
2013-07-24 18:30:00,65.6,53.7,30.02,ENE,67,4.0,6.0,65,0.00,,,0.00,WUHU216DAVISVP2,2013-07-24 22:30:00,
2013-07-24 18:35:00,65.3,53.8,30.02,East,90,0.0,8.0,66,0.00,,,0.00,WUHU216DAVISVP2,2013-07-24 22:35:00,
2013-07-24 18:40:00,65.2,53.3,30.03,East,89,0.0,8.0,65,0.00,,,0.00,WUHU216DAVISVP2,2013-07-24 22:40:00,
2013-07-24 18:45:00,65.2,53.7,30.02,North,350,2.0,8.0,66,0.00,,,0.00,WUHU216DAVISVP2,2013-07-24 22:45:00,
2013-07-24 18:50:00,65.2,53.7,30.02,North,11,0.0,10.0,66,0.00,,,0.00,WUHU216DAVISVP2,2013-07-24 22:50:00,
2013-07-24 18:55:00,65.0,52.7,30.02,NNE,27,4.0,10.0,64,0.00,,,0.00,WUHU216DAVISVP2,2013-07-24 22:55:00,
2013-07-24 19:00:00,64.8,52.5,30.03,ESE,111,8.0,14.0,64,0.00,,,0.00,WUHU216DAVISVP2,2013-07-24 23:00:00,
2013-07-24 19:05:00,64.6,52.7,30.03,SE,133,2.0,14.0,65,0.00,,,0.00,WUHU216DAVISVP2,2013-07-24 23:05:00,
2013-07-24 19:10:00,64.5,53.5,30.03,NNE,14,2.0,6.0,67,0.00,,,0.00,WUHU216DAVISVP2,2013-07-24 23:10:00,
2013-07-24 19:15:00,64.5,53.1,30.03,ENE,59,0.0,6.0,66,0.00,,,0.00,WUHU216DAVISVP2,2013-07-24 23:15:00,
2013-07-24 19:20:00,64.4,54.2,30.03,NNE,26,8.0,10.0,69,0.00,,,0.00,WUHU216DAVISVP2,2013-07-24 23:20:00,
2013-07-24 19:25:00,64.2,52.4,30.03,NNE,15,0.0,10.0,65,0.00,,,0.00,WUHU216DAVISVP2,2013-07-24 23:25:00,
2013-07-24 19:31:00,64.2,52.8,30.03,NE,44,0.0,6.0,66,0.00,,,0.00,WUHU216DAVISVP2,2013-07-24 23:31:00,
2013-07-24 19:36:00,64.1,52.3,30.03,NNE,27,2.0,6.0,65,0.00,,,0.00,WUHU216DAVISVP2,2013-07-24 23:36:00,
2013-07-24 19:41:00,64.0,52.6,30.03,NNE,27,2.0,6.0,66,0.00,,,0.00,WUHU216DAVISVP2,2013-07-24 23:41:00,
2013-07-24 19:46:00,63.8,52.4,30.03,NNE,22,0.0,4.0,66,0.00,,,0.00,WUHU216DAVISVP2,2013-07-24 23:46:00,
2013-07-24 19:51:00,63.7,53.1,30.03,SE,125,0.0,6.0,68,0.00,,,0.00,WUHU216DAVISVP2,2013-07-24 23:51:00,
2013-07-24 19:56:00,63.6,53.0,30.03,SE,125,0.0,6.0,68,0.00,,,0.00,WUHU216DAVISVP2,2013-07-24 23:56:00,
2013-07-24 20:01:00,63.5,52.5,30.03,SE,125,0.0,0.0,67,0.00,,,0.00,WUHU216DAVISVP2,2013-07-25 00:01:00,
2013-07-24 20:06:00,63.4,52.8,30.04,North,355,0.0,4.0,68,0.00,,,0.00,WUHU216DAVISVP2,2013-07-25 00:06:00,
2013-07-24 20:11:00,63.2,53.0,30.04,NE,44,0.0,4.0,69,0.00,,,0.00,WUHU216DAVISVP2,2013-07-25 00:11:00,
2013-07-24 20:16:00,63.1,54.4,30.04,NE,44,0.0,2.0,73,0.00,,,0.00,WUHU216DAVISVP2,2013-07-25 00:16:00,
2013-07-24 20:21:00,62.8,53.8,30.04,NE,44,0.0,0.0,72,0.00,,,0.00,WUHU216DAVISVP2,2013-07-25 00:21:00,
2013-07-24 20:26:00,62.5,54.6,30.04,NE,44,0.0,0.0,75,0.00,,,0.00,WUHU216DAVISVP2,2013-07-25 00:26:00,
2013-07-24 20:32:00,62.0,54.4,30.04,NE,44,0.0,0.0,76,0.00,,,0.00,WUHU216DAVISVP2,2013-07-25 00:32:00,
2013-07-24 20:37:00,61.5,54.3,30.04,NE,44,0.0,0.0,77,0.00,,,0.00,WUHU216DAVISVP2,2013-07-25 00:37:00,
2013-07-24 20:42:00,61.0,54.5,30.04,NE,44,0.0,0.0,79,0.00,,,0.00,WUHU216DAVISVP2,2013-07-25 00:42:00,
2013-07-24 20:47:00,60.4,54.3,30.04,NE,44,0.0,0.0,80,0.00,,,0.00,WUHU216DAVISVP2,2013-07-25 00:47:00,
2013-07-24 20:52:00,59.9,54.1,30.04,NE,44,0.0,0.0,81,0.00,,,0.00,WUHU216DAVISVP2,2013-07-25 00:52:00,
2013-07-24 20:57:00,59.5,54.0,30.04,NE,44,0.0,0.0,82,0.00,,,0.00,WUHU216DAVISVP2,2013-07-25 00:57:00,
2013-07-24 21:02:00,59.1,54.0,30.04,NE,44,0.0,0.0,83,0.00,,,0.00,WUHU216DAVISVP2,2013-07-25 01:02:00,
2013-07-24 21:07:00,58.7,53.6,30.04,NE,44,0.0,0.0,83,0.00,,,0.00,WUHU216DAVISVP2,2013-07-25 01:07:00,
2013-07-24 21:12:00,58.3,53.5,30.04,NE,44,0.0,0.0,84,0.00,,,0.00,WUHU216DAVISVP2,2013-07-25 01:12:00,
2013-07-24 21:17:00,57.9,53.1,30.04,NE,44,0.0,0.0,84,0.00,,,0.00,WUHU216DAVISVP2,2013-07-25 01:17:00,
2013-07-24 21:22:00,57.5,53.0,30.05,NE,44,0.0,0.0,85,0.00,,,0.00,WUHU216DAVISVP2,2013-07-25 01:22:00,
2013-07-24 21:27:00,57.1,52.9,30.04,NE,44,0.0,0.0,86,0.00,,,0.00,WUHU216DAVISVP2,2013-07-25 01:27:00,
2013-07-24 21:32:00,56.9,53.1,30.05,NE,44,0.0,0.0,87,0.00,,,0.00,WUHU216DAVISVP2,2013-07-25 01:32:00,
2013-07-24 21:37:00,56.7,53.2,30.05,NE,44,0.0,0.0,88,0.00,,,0.00,WUHU216DAVISVP2,2013-07-25 01:37:00,
2013-07-24 21:42:00,56.4,52.9,30.05,NE,44,0.0,0.0,88,0.00,,,0.00,WUHU216DAVISVP2,2013-07-25 01:42:00,
2013-07-24 21:47:00,56.3,53.1,30.05,NE,44,0.0,0.0,89,0.00,,,0.00,WUHU216DAVISVP2,2013-07-25 01:47:00,
2013-07-24 21:52:00,56.1,52.9,30.05,NE,44,0.0,0.0,89,0.00,,,0.00,WUHU216DAVISVP2,2013-07-25 01:52:00,
2013-07-24 21:57:00,55.9,53.0,30.05,NE,44,0.0,0.0,90,0.00,,,0.00,WUHU216DAVISVP2,2013-07-25 01:57:00,
2013-07-24 22:02:00,55.7,52.8,30.05,NE,44,0.0,0.0,90,0.00,,,0.00,WUHU216DAVISVP2,2013-07-25 02:02:00,
2013-07-24 22:07:00,55.6,53.0,30.05,NE,44,0.0,0.0,91,0.00,,,0.00,WUHU216DAVISVP2,2013-07-25 02:07:00,
2013-07-24 22:12:00,55.4,52.8,30.06,NE,44,0.0,0.0,91,0.00,,,0.00,WUHU216DAVISVP2,2013-07-25 02:12:00,
2013-07-24 22:18:00,55.3,52.7,30.05,NE,44,0.0,0.0,91,0.00,,,0.00,WUHU216DAVISVP2,2013-07-25 02:18:00,
2013-07-24 22:23:00,55.2,52.9,30.05,NE,44,0.0,0.0,92,0.00,,,0.00,WUHU216DAVISVP2,2013-07-25 02:23:00,
2013-07-24 22:28:00,55.1,52.8,30.05,NE,44,0.0,0.0,92,0.00,,,0.00,WUHU216DAVISVP2,2013-07-25 02:28:00,
2013-07-24 22:33:00,55.0,53.0,30.05,NE,44,0.0,0.0,93,0.00,,,0.00,WUHU216DAVISVP2,2013-07-25 02:33:00,
2013-07-24 22:38:00,54.9,52.6,30.05,NE,44,0.0,0.0,92,0.00,,,0.00,WUHU216DAVISVP2,2013-07-25 02:38:00,
2013-07-24 22:43:00,54.8,52.8,30.05,NE,44,0.0,0.0,93,0.00,,,0.00,WUHU216DAVISVP2,2013-07-25 02:43:00,
2013-07-24 22:48:00,54.6,52.6,30.05,NE,44,0.0,0.0,93,0.00,,,0.00,WUHU216DAVISVP2,2013-07-25 02:48:00,
2013-07-24 22:53:00,54.5,52.5,30.06,NE,44,0.0,0.0,93,0.00,,,0.00,WUHU216DAVISVP2,2013-07-25 02:53:00,
2013-07-24 22:58:00,54.4,52.4,30.06,NE,44,0.0,0.0,93,0.00,,,0.00,WUHU216DAVISVP2,2013-07-25 02:58:00,
2013-07-24 23:04:00,54.3,52.3,30.06,NE,44,0.0,0.0,93,0.00,,,0.00,WUHU216DAVISVP2,2013-07-25 03:04:00,
2013-07-24 23:09:00,54.2,52.5,30.06,NE,44,0.0,0.0,94,0.00,,,0.00,WUHU216DAVISVP2,2013-07-25 03:09:00,
2013-07-24 23:14:00,54.1,52.4,30.06,NE,44,0.0,0.0,94,0.00,,,0.00,WUHU216DAVISVP2,2013-07-25 03:14:00,
2013-07-24 23:19:00,54.1,52.4,30.06,NE,44,0.0,0.0,94,0.00,,,0.00,WUHU216DAVISVP2,2013-07-25 03:19:00,
2013-07-24 23:24:00,54.0,52.3,30.06,NE,44,0.0,0.0,94,0.00,,,0.00,WUHU216DAVISVP2,2013-07-25 03:24:00,
2013-07-24 23:29:00,53.9,52.2,30.06,NE,44,0.0,0.0,94,0.00,,,0.00,WUHU216DAVISVP2,2013-07-25 03:29:00,
2013-07-24 23:34:00,53.9,52.2,30.06,NE,44,0.0,0.0,94,0.00,,,0.00,WUHU216DAVISVP2,2013-07-25 03:34:00,
2013-07-24 23:39:00,53.8,52.1,30.06,NE,44,0.0,0.0,94,0.00,,,0.00,WUHU216DAVISVP2,2013-07-25 03:39:00,
2013-07-24 23:44:00,53.7,52.0,30.06,NE,44,0.0,0.0,94,0.00,,,0.00,WUHU216DAVISVP2,2013-07-25 03:44:00,
2013-07-24 23:49:00,53.7,52.3,30.06,NE,44,0.0,0.0,95,0.00,,,0.00,WUHU216DAVISVP2,2013-07-25 03:49:00,
2013-07-24 23:55:00,53.6,52.2,30.07,NE,44,0.0,0.0,95,0.00,,,0.00,WUHU216DAVISVP2,2013-07-25 03:55:00,